Time;durP1;ratioP1;P1;durP2;ratioP2;P2;SDS_P1;SDS_P2;PMS_P1;PMS_P2;Temp;Humidity;BMP_temperature;BMP_pressure;BME280_temperature;BME280_humidity;BME280_pressure;Samples;Min_cycle;Max_cycle;Signal;HPM_P1;HPM_P2
2022/04/24 00:00:38;;;;;;;10.68;3.30;;;;;;;;;;5009809;28;20076;-65
2022/04/24 00:03:09;;;;;;;8.73;3.17;;;;;;;;;;4982353;28;20050;-65
2022/04/24 00:05:40;;;;;;;7.88;3.42;;;;;;;;;;5016216;28;20057;-65
2022/04/24 00:08:10;;;;;;;13.65;3.20;;;;;;;;;;5033500;28;20051;-66
2022/04/24 00:10:41;;;;;;;8.07;3.10;;;;;;;;;;5009827;28;20490;-66
2022/04/24 00:13:12;;;;;;;10.13;2.92;;;;;;;;;;5010308;28;20072;-66
2022/04/24 00:15:43;;;;;;;8.02;2.78;;;;;;;;;;4977577;28;20066;-66
2022/04/24 00:18:13;;;;;;;7.78;3.00;;;;;;;;;;5010281;28;20397;-66
2022/04/24 00:20:44;;;;;;;7.45;3.05;;;;;;;;;;4990164;28;20050;-65
2022/04/24 00:23:16;;;;;;;9.40;3.38;;;;;;;;;;5009748;28;20050;-65
2022/04/24 00:25:47;;;;;;;9.20;2.92;;;;;;;;;;5009843;28;20646;-65
2022/04/24 00:28:17;;;;;;;6.35;2.97;;;;;;;;;;5020493;28;20053;-66
2022/04/24 00:30:48;;;;;;;7.80;2.90;;;;;;;;;;5029741;28;20045;-66
2022/04/24 00:33:19;;;;;;;8.02;3.20;;;;;;;;;;4980598;28;20057;-65
2022/04/24 00:35:49;;;;;;;8.27;3.30;;;;;;;;;;4996678;28;20552;-66
2022/04/24 00:38:20;;;;;;;8.02;2.72;;;;;;;;;;5029645;28;20072;-66
2022/04/24 00:40:52;;;;;;;9.27;3.10;;;;;;;;;;5040450;28;20504;-66
2022/04/24 00:43:22;;;;;;;6.65;2.60;;;;;;;;;;5032860;28;20052;-66
2022/04/24 00:46:18;;;;;;;7.60;2.90;;;;;;;;;;5009582;28;20058;-66
2022/04/24 00:48:49;;;;;;;6.47;3.00;;;;;;;;;;5023485;28;20061;-66
2022/04/24 00:51:19;;;;;;;7.50;3.08;;;;;;;;;;4976671;28;20046;-66
2022/04/24 00:53:52;;;;;;;6.78;3.08;;;;;;;;;;4989638;28;20043;-66
2022/04/24 00:56:30;;;;;;;7.05;3.13;;;;;;;;;;4974093;28;20054;-65
2022/04/24 00:59:04;;;;;;;6.43;2.63;;;;;;;;;;4958912;28;20148;-65
2022/04/24 01:01:36;;;;;;;6.32;3.13;;;;;;;;;;4968251;28;20051;-66
2022/04/24 01:04:10;;;;;;;5.95;2.67;;;;;;;;;;4970752;28;20462;-66
2022/04/24 01:06:42;;;;;;;10.00;3.28;;;;;;;;;;4970809;28;20047;-66
2022/04/24 01:09:20;;;;;;;6.13;2.72;;;;;;;;;;4973020;28;20111;-66
2022/04/24 01:11:53;;;;;;;8.90;3.28;;;;;;;;;;4974259;28;20159;-66
2022/04/24 01:14:26;;;;;;;6.70;3.00;;;;;;;;;;4954257;28;20574;-66
2022/04/24 01:16:59;;;;;;;6.63;3.20;;;;;;;;;;4954588;28;20067;-66
2022/04/24 01:19:29;;;;;;;;;;;;;;;;;;4954993;28;20404;-66
2022/04/24 01:22:00;;;;;;;7.22;2.92;;;;;;;;;;4954739;28;19922;-66
2022/04/24 01:24:31;;;;;;;8.18;3.28;;;;;;;;;;4920090;29;20416;-66
2022/04/24 01:27:02;;;;;;;10.50;3.10;;;;;;;;;;4944196;28;20055;-66
2022/04/24 01:29:32;;;;;;;7.20;3.03;;;;;;;;;;4968712;28;20075;-66
2022/04/24 01:32:03;;;;;;;7.65;3.28;;;;;;;;;;5002876;28;20069;-66
2022/04/24 01:34:35;;;;;;;8.23;3.08;;;;;;;;;;5012796;28;20042;-66
2022/04/24 01:37:06;;;;;;;9.77;2.83;;;;;;;;;;5012947;28;20062;-66
2022/04/24 01:39:36;;;;;;;10.15;3.45;;;;;;;;;;5012804;28;20154;-66
2022/04/24 01:42:07;;;;;;;6.88;2.72;;;;;;;;;;5012671;28;20054;-66
2022/04/24 01:44:38;;;;;;;6.53;3.30;;;;;;;;;;5012574;28;20062;-66
2022/04/24 01:47:09;;;;;;;6.95;2.80;;;;;;;;;;5012727;28;20100;-66
2022/04/24 01:49:39;;;;;;;7.90;2.75;;;;;;;;;;5012501;28;20057;-66
2022/04/24 01:52:11;;;;;;;7.50;2.80;;;;;;;;;;5048274;28;20063;-66
2022/04/24 01:54:41;;;;;;;10.30;2.67;;;;;;;;;;5074190;28;20498;-66
2022/04/24 01:57:12;;;;;;;8.40;2.88;;;;;;;;;;5074371;28;20059;-66
2022/04/24 01:59:42;;;;;;;6.60;2.80;;;;;;;;;;5039121;28;20052;-66
2022/04/24 02:02:13;;;;;;;6.68;2.70;;;;;;;;;;5111256;28;20070;-66
2022/04/24 02:04:44;;;;;;;8.88;2.60;;;;;;;;;;5114731;28;20048;-66
2022/04/24 02:07:15;;;;;;;5.63;2.72;;;;;;;;;;5114500;28;20039;-66
2022/04/24 02:09:45;;;;;;;5.68;2.92;;;;;;;;;;5113594;28;20398;-66
2022/04/24 02:12:15;;;;;;;6.43;3.15;;;;;;;;;;5112165;28;20094;-66
2022/04/24 02:14:46;;;;;;;8.85;3.00;;;;;;;;;;5095690;28;20126;-66
2022/04/24 02:17:17;;;;;;;7.32;3.08;;;;;;;;;;5091523;28;20522;-66
2022/04/24 02:19:47;;;;;;;7.60;2.55;;;;;;;;;;5091779;28;20052;-66
2022/04/24 02:22:18;;;;;;;4.97;2.60;;;;;;;;;;5051653;28;20053;-66
2022/04/24 02:24:49;;;;;;;4.60;2.55;;;;;;;;;;5051473;28;20068;-66
2022/04/24 02:27:19;;;;;;;7.40;2.45;;;;;;;;;;5011208;28;20433;-66
2022/04/24 02:29:50;;;;;;;6.20;2.47;;;;;;;;;;5011841;28;20065;-66
2022/04/24 02:32:20;;;;;;;6.15;2.85;;;;;;;;;;4978792;28;20054;-66
2022/04/24 02:34:51;;;;;;;8.18;2.60;;;;;;;;;;5011626;28;20065;-66
2022/04/24 02:37:22;;;;;;;5.95;2.70;;;;;;;;;;5011605;28;20053;-66
2022/04/24 02:39:53;;;;;;;5.97;2.72;;;;;;;;;;4972495;28;20050;-66
2022/04/24 02:42:24;;;;;;;6.00;2.67;;;;;;;;;;4970669;28;20063;-66
2022/04/24 02:44:55;;;;;;;5.22;2.65;;;;;;;;;;4953058;28;20070;-66
2022/04/24 02:47:25;;;;;;;9.20;2.70;;;;;;;;;;4952875;28;20066;-66
2022/04/24 02:49:56;;;;;;;4.75;2.50;;;;;;;;;;4972339;28;20051;-66
2022/04/24 02:52:26;;;;;;;7.00;2.58;;;;;;;;;;4971792;28;20055;-66
2022/04/24 02:54:58;;;;;;;5.82;2.50;;;;;;;;;;4943448;28;20058;-66
2022/04/24 02:57:32;;;;;;;5.30;2.40;;;;;;;;;;4952875;28;20063;-66
2022/04/24 03:00:04;;;;;;;8.05;2.78;;;;;;;;;;4954992;28;20047;-66
2022/04/24 03:02:42;;;;;;;5.72;2.83;;;;;;;;;;4956070;28;20051;-66
2022/04/24 03:05:16;;;;;;;5.43;2.80;;;;;;;;;;4960241;28;20058;-66
2022/04/24 03:07:47;;;;;;;6.03;2.47;;;;;;;;;;4952531;29;20051;-66
2022/04/24 03:10:18;;;;;;;4.78;2.33;;;;;;;;;;4971682;28;20158;-66
2022/04/24 03:12:48;;;;;;;10.15;2.80;;;;;;;;;;4971892;28;20161;-65
2022/04/24 03:15:20;;;;;;;7.10;3.38;;;;;;;;;;4972266;28;20066;-66
2022/04/24 03:17:51;;;;;;;6.47;3.20;;;;;;;;;;4984268;28;20406;-66
2022/04/24 03:20:25;;;;;;;6.05;2.90;;;;;;;;;;4991211;28;20054;-66
2022/04/24 03:22:56;;;;;;;4.47;2.63;;;;;;;;;;4991019;28;20061;-66
2022/04/24 03:25:26;;;;;;;6.53;2.67;;;;;;;;;;4963358;28;20081;-66
2022/04/24 03:27:57;;;;;;;5.18;2.67;;;;;;;;;;5023748;28;20057;-66
2022/04/24 03:30:28;;;;;;;6.28;2.50;;;;;;;;;;5016562;28;20437;-66
2022/04/24 03:32:59;;;;;;;5.10;2.30;;;;;;;;;;5030089;28;20061;-66
2022/04/24 03:35:29;;;;;;;6.00;2.42;;;;;;;;;;5010352;28;20050;-66
2022/04/24 03:38:00;;;;;;;8.93;2.70;;;;;;;;;;4990577;28;20050;-66
2022/04/24 03:40:31;;;;;;;5.97;2.63;;;;;;;;;;4971154;28;20047;-66
2022/04/24 03:43:01;;;;;;;6.03;2.35;;;;;;;;;;4971002;28;20055;-67
2022/04/24 03:45:32;;;;;;;7.90;2.50;;;;;;;;;;4955866;28;20058;-66
2022/04/24 03:48:03;;;;;;;5.70;2.58;;;;;;;;;;4992449;28;20058;-66
2022/04/24 03:50:34;;;;;;;6.50;2.88;;;;;;;;;;5010473;28;20053;-67
2022/04/24 03:53:05;;;;;;;7.68;2.55;;;;;;;;;;5010343;28;20050;-66
2022/04/24 03:55:35;;;;;;;10.10;2.78;;;;;;;;;;4977579;28;20058;-66
2022/04/24 03:58:06;;;;;;;5.90;3.25;;;;;;;;;;5010145;28;20062;-66
2022/04/24 04:00:37;;;;;;;5.97;2.90;;;;;;;;;;5010002;28;20061;-66
2022/04/24 04:03:07;;;;;;;4.78;2.55;;;;;;;;;;5010095;28;20054;-67
2022/04/24 04:05:39;;;;;;;4.53;2.42;;;;;;;;;;5009997;28;20053;-66
2022/04/24 04:08:09;;;;;;;5.90;2.88;;;;;;;;;;5020597;28;20057;-67
2022/04/24 04:10:40;;;;;;;4.93;2.85;;;;;;;;;;5029968;28;20053;-66
2022/04/24 04:13:11;;;;;;;6.47;3.00;;;;;;;;;;5020178;28;20045;-67
2022/04/24 04:15:42;;;;;;;8.15;2.70;;;;;;;;;;4979864;28;20051;-67
2022/04/24 04:18:13;;;;;;;7.85;3.05;;;;;;;;;;4951530;28;20051;-66
2022/04/24 04:20:44;;;;;;;6.43;2.85;;;;;;;;;;4942463;29;20091;-67
2022/04/24 04:23:14;;;;;;;6.40;2.92;;;;;;;;;;4951794;29;20062;-66
2022/04/24 04:25:45;;;;;;;11.70;3.00;;;;;;;;;;4952080;29;20059;-67
2022/04/24 04:28:16;;;;;;;7.15;2.90;;;;;;;;;;4913429;29;20063;-67
2022/04/24 04:30:47;;;;;;;5.55;2.75;;;;;;;;;;4913677;29;20064;-67
2022/04/24 04:33:17;;;;;;;7.78;3.20;;;;;;;;;;4882275;29;20060;-67
2022/04/24 04:35:48;;;;;;;9.88;3.75;;;;;;;;;;4913698;29;20463;-67
2022/04/24 04:38:19;;;;;;;9.23;3.10;;;;;;;;;;4875603;29;20057;-66
2022/04/24 04:40:50;;;;;;;8.20;2.75;;;;;;;;;;4875719;29;20464;-67
2022/04/24 04:43:20;;;;;;;9.32;3.30;;;;;;;;;;4861092;29;20052;-67
2022/04/24 04:45:51;;;;;;;9.23;3.30;;;;;;;;;;4879808;29;20068;-67
2022/04/24 04:48:22;;;;;;;7.53;3.60;;;;;;;;;;4879245;29;20501;-66
2022/04/24 04:50:53;;;;;;;6.75;3.15;;;;;;;;;;4889635;29;20072;-67
2022/04/24 04:53:24;;;;;;;8.57;2.95;;;;;;;;;;4917778;29;20075;-66
2022/04/24 04:55:54;;;;;;;8.30;3.55;;;;;;;;;;4945877;28;20510;-67
2022/04/24 04:58:25;;;;;;;7.53;3.08;;;;;;;;;;4944803;28;20055;-67
2022/04/24 05:00:56;;;;;;;7.50;3.00;;;;;;;;;;4935547;29;20059;-66
2022/04/24 05:03:27;;;;;;;9.52;3.38;;;;;;;;;;4938588;29;20060;-66
2022/04/24 05:05:58;;;;;;;7.43;3.15;;;;;;;;;;4964835;28;20051;-66
2022/04/24 05:08:29;;;;;;;8.48;2.75;;;;;;;;;;4957754;28;20058;-67
2022/04/24 05:11:01;;;;;;;6.45;2.95;;;;;;;;;;4974306;28;20062;-67
2022/04/24 05:13:31;;;;;;;7.32;3.33;;;;;;;;;;4957900;28;20066;-67
2022/04/24 05:16:03;;;;;;;7.90;3.10;;;;;;;;;;5014104;28;20509;-67
2022/04/24 05:18:33;;;;;;;7.78;2.92;;;;;;;;;;5032737;28;20057;-67
2022/04/24 05:21:04;;;;;;;7.40;3.42;;;;;;;;;;5012597;28;20493;-67
2022/04/24 05:23:34;;;;;;;7.75;3.72;;;;;;;;;;4980171;28;20046;-66
2022/04/24 05:26:05;;;;;;;7.30;2.95;;;;;;;;;;5034329;28;20065;-67
2022/04/24 05:28:35;;;;;;;8.60;3.42;;;;;;;;;;5019460;28;20538;-66
2022/04/24 05:31:06;;;;;;;6.40;3.10;;;;;;;;;;5032631;28;20053;-67
2022/04/24 05:33:37;;;;;;;7.20;2.95;;;;;;;;;;5032318;28;20053;-66
2022/04/24 05:36:08;;;;;;;7.80;2.95;;;;;;;;;;5006036;28;20062;-66
2022/04/24 05:38:39;;;;;;;6.13;2.53;;;;;;;;;;5012700;28;20066;-66
2022/04/24 05:41:10;;;;;;;7.78;2.97;;;;;;;;;;5023264;28;20073;-67
2022/04/24 05:43:41;;;;;;;6.97;3.05;;;;;;;;;;4979591;28;20445;-66
2022/04/24 05:46:14;;;;;;;4.97;2.47;;;;;;;;;;5012602;28;20064;-67
2022/04/24 05:48:45;;;;;;;6.10;2.58;;;;;;;;;;5028496;28;20545;-66
2022/04/24 05:51:15;;;;;;;6.43;2.80;;;;;;;;;;4963888;28;20054;-66
2022/04/24 05:53:46;;;;;;;10.65;3.00;;;;;;;;;;5012194;28;20058;-66
2022/04/24 05:56:17;;;;;;;6.88;2.92;;;;;;;;;;5012345;28;20057;-66
2022/04/24 05:58:47;;;;;;;6.78;2.45;;;;;;;;;;5033089;28;20045;-66
2022/04/24 06:01:18;;;;;;;6.28;2.83;;;;;;;;;;5041075;28;20050;-66
2022/04/24 06:03:49;;;;;;;10.70;3.22;;;;;;;;;;5032040;28;20060;-66
2022/04/24 06:06:20;;;;;;;6.38;2.53;;;;;;;;;;5032193;28;20455;-67
2022/04/24 06:08:51;;;;;;;6.60;2.75;;;;;;;;;;4982855;28;20057;-67
2022/04/24 06:11:21;;;;;;;7.82;2.58;;;;;;;;;;5051690;28;20404;-67
2022/04/24 06:13:52;;;;;;;7.40;2.50;;;;;;;;;;5051852;28;20523;-67
2022/04/24 06:16:23;;;;;;;5.82;3.05;;;;;;;;;;5031790;28;20056;-67
2022/04/24 06:18:54;;;;;;;7.07;3.08;;;;;;;;;;5031545;28;20053;-67
2022/04/24 06:21:25;;;;;;;6.85;3.28;;;;;;;;;;5031586;28;20054;-67
2022/04/24 06:23:55;;;;;;;5.95;2.47;;;;;;;;;;4972620;28;20051;-67
2022/04/24 06:26:27;;;;;;;8.68;2.42;;;;;;;;;;4972720;28;20059;-66
2022/04/24 06:28:58;;;;;;;7.85;2.30;;;;;;;;;;4953155;29;20092;-66
2022/04/24 06:31:28;;;;;;;6.50;2.78;;;;;;;;;;4899877;29;20056;-67
2022/04/24 06:33:59;;;;;;;4.30;2.17;;;;;;;;;;4914793;29;20052;-67
2022/04/24 06:36:30;;;;;;;5.00;2.42;;;;;;;;;;4914903;29;20087;-67
2022/04/24 06:39:01;;;;;;;8.00;2.45;;;;;;;;;;4899549;29;20071;-67
2022/04/24 06:41:31;;;;;;;6.22;2.83;;;;;;;;;;4883596;29;20436;-67
2022/04/24 06:44:01;;;;;;;6.95;2.88;;;;;;;;;;4896012;29;20056;-67
2022/04/24 06:46:33;;;;;;;7.07;3.05;;;;;;;;;;4877143;29;20061;-67
2022/04/24 06:49:04;;;;;;;7.18;2.78;;;;;;;;;;4871268;29;20052;-67
2022/04/24 06:51:34;;;;;;;9.23;3.05;;;;;;;;;;4896029;29;20102;-66
2022/04/24 06:54:04;;;;;;;16.95;3.30;;;;;;;;;;4906246;29;20060;-66
2022/04/24 06:56:35;;;;;;;7.60;3.03;;;;;;;;;;4914901;29;20058;-67
2022/04/24 06:59:06;;;;;;;6.55;3.38;;;;;;;;;;4901980;29;20063;-67
2022/04/24 07:01:37;;;;;;;5.68;2.80;;;;;;;;;;4952724;28;20206;-67
2022/04/24 07:04:08;;;;;;;8.05;3.53;;;;;;;;;;4966559;28;20054;-67
2022/04/24 07:06:39;;;;;;;11.85;3.33;;;;;;;;;;4913925;29;20158;-66
2022/04/24 07:09:10;;;;;;;7.35;2.92;;;;;;;;;;4933858;28;20055;-68
2022/04/24 07:11:41;;;;;;;5.75;2.63;;;;;;;;;;4956137;28;20055;-67
2022/04/24 07:14:11;;;;;;;5.53;2.75;;;;;;;;;;4971945;28;20062;-67
2022/04/24 07:16:42;;;;;;;8.13;2.90;;;;;;;;;;4990971;28;20046;-68
2022/04/24 07:19:13;;;;;;;9.57;2.70;;;;;;;;;;4991218;28;20069;-67
2022/04/24 07:21:43;;;;;;;11.70;3.25;;;;;;;;;;5001370;28;20065;-67
2022/04/24 07:24:14;;;;;;;7.32;3.00;;;;;;;;;;5011062;28;20065;-68
2022/04/24 07:26:45;;;;;;;10.10;2.90;;;;;;;;;;5010587;28;20065;-67
2022/04/24 07:29:15;;;;;;;4.82;2.75;;;;;;;;;;5010537;28;20053;-67
2022/04/24 07:31:46;;;;;;;7.72;2.83;;;;;;;;;;5010685;28;20050;-67
2022/04/24 07:34:16;;;;;;;5.43;2.60;;;;;;;;;;5031423;28;20088;-68
2022/04/24 07:36:47;;;;;;;9.95;3.20;;;;;;;;;;5050186;28;20048;-67
2022/04/24 07:39:18;;;;;;;10.55;2.88;;;;;;;;;;5057778;28;20048;-67
2022/04/24 07:41:48;;;;;;;7.45;2.65;;;;;;;;;;5110718;28;20058;-67
2022/04/24 07:44:21;;;;;;;6.85;3.00;;;;;;;;;;5110790;28;20561;-67
2022/04/24 07:46:52;;;;;;;10.82;3.38;;;;;;;;;;5052892;28;20048;-67
2022/04/24 07:49:23;;;;;;;6.63;2.78;;;;;;;;;;5069971;28;20053;-68
2022/04/24 07:51:53;;;;;;;9.95;3.25;;;;;;;;;;5070059;28;20432;-67
2022/04/24 07:54:24;;;;;;;8.02;2.90;;;;;;;;;;5080946;28;20055;-68
2022/04/24 07:56:54;;;;;;;15.02;3.08;;;;;;;;;;5090018;28;20052;-68
2022/04/24 07:59:25;;;;;;;5.80;2.92;;;;;;;;;;5090121;28;20056;-68
2022/04/24 08:01:55;;;;;;;7.35;2.80;;;;;;;;;;5089919;28;20052;-67
2022/04/24 08:04:26;;;;;;;7.10;2.80;;;;;;;;;;5049752;28;20053;-67
2022/04/24 08:06:57;;;;;;;6.85;3.15;;;;;;;;;;5000506;28;20083;-67
2022/04/24 08:09:28;;;;;;;6.63;2.70;;;;;;;;;;5000331;28;20049;-68
2022/04/24 08:11:58;;;;;;;11.07;3.15;;;;;;;;;;5033533;28;20069;-67
2022/04/24 08:14:29;;;;;;;7.22;2.83;;;;;;;;;;4977565;28;20050;-67
2022/04/24 08:17:01;;;;;;;7.18;3.00;;;;;;;;;;5010429;28;20054;-67
2022/04/24 08:19:31;;;;;;;6.93;3.38;;;;;;;;;;5014599;28;20797;-67
2022/04/24 08:22:03;;;;;;;9.57;3.30;;;;;;;;;;5014022;28;20564;-68
2022/04/24 08:24:33;;;;;;;7.47;3.00;;;;;;;;;;5024505;28;20536;-68
2022/04/24 08:27:04;;;;;;;9.73;3.63;;;;;;;;;;5035683;28;20045;-67
2022/04/24 08:29:35;;;;;;;8.23;3.75;;;;;;;;;;5053618;28;20053;-68
2022/04/24 08:32:06;;;;;;;8.02;3.13;;;;;;;;;;5053833;28;20162;-67
2022/04/24 08:34:36;;;;;;;11.13;3.75;;;;;;;;;;5020679;28;20065;-67
2022/04/24 08:37:07;;;;;;;12.13;3.75;;;;;;;;;;5020404;28;20064;-67
2022/04/24 08:39:38;;;;;;;10.45;4.32;;;;;;;;;;5053629;28;20060;-68
2022/04/24 08:42:09;;;;;;;13.25;4.30;;;;;;;;;;5064750;28;20061;-68
2022/04/24 08:44:43;;;;;;;13.27;4.10;;;;;;;;;;5026210;28;20411;-68
2022/04/24 08:47:20;;;;;;;9.65;3.67;;;;;;;;;;5073450;28;20059;-68
2022/04/24 08:49:59;;;;;;;9.98;3.58;;;;;;;;;;5057009;28;20056;-68
2022/04/24 08:52:30;;;;;;;8.68;4.40;;;;;;;;;;5100317;28;20442;-68
2022/04/24 08:55:02;;;;;;;9.98;4.10;;;;;;;;;;5080021;28;20051;-68
2022/04/24 08:57:33;;;;;;;12.55;3.80;;;;;;;;;;5097058;28;20058;-68
2022/04/24 09:00:10;;;;;;;13.82;3.38;;;;;;;;;;5113688;28;20051;-68
2022/04/24 09:02:51;;;;;;;10.18;3.65;;;;;;;;;;5110224;28;20048;-68
2022/04/24 09:05:22;;;;;;;9.10;3.65;;;;;;;;;;5116273;28;20048;-68
2022/04/24 09:07:55;;;;;;;11.00;3.80;;;;;;;;;;5059948;28;20079;-68
2022/04/24 09:10:56;;;;;;;9.90;4.28;;;;;;;;;;5093196;28;20091;-68
2022/04/24 09:16:46;;;;;;;12.38;3.97;;;;;;;;;;5092951;28;20040;-68
2022/04/24 09:19:21;;;;;;;9.05;3.53;;;;;;;;;;5093111;28;20050;-68
2022/04/24 09:22:01;;;;;;;15.85;4.40;;;;;;;;;;5093257;28;20495;-68
2022/04/24 09:24:47;;;;;;;43.40;5.88;;;;;;;;;;5092986;28;20502;-68
2022/04/24 09:27:23;;;;;;;11.43;3.33;;;;;;;;;;5093112;28;20419;-68
2022/04/24 09:30:00;;;;;;;7.60;3.53;;;;;;;;;;5092070;28;20584;-68
2022/04/24 09:32:46;;;;;;;11.52;3.42;;;;;;;;;;5072287;28;20491;-67
2022/04/24 09:35:24;;;;;;;10.15;3.63;;;;;;;;;;5056085;28;20060;-68
2022/04/24 09:38:14;;;;;;;9.20;3.47;;;;;;;;;;5032079;28;20053;-68
2022/04/24 09:40:47;;;;;;;17.80;3.40;;;;;;;;;;5032774;28;20053;-67
2022/04/24 09:43:22;;;;;;;19.45;3.85;;;;;;;;;;5032676;28;20053;-67
2022/04/24 09:45:54;;;;;;;37.53;3.05;;;;;;;;;;5012485;28;20060;-67
2022/04/24 09:48:26;;;;;;;17.67;2.10;;;;;;;;;;5052294;28;20153;-67
2022/04/24 09:50:58;;;;;;;25.17;2.95;;;;;;;;;;5012221;28;20508;-68
2022/04/24 09:53:31;;;;;;;32.92;2.63;;;;;;;;;;5012651;28;20510;-68
2022/04/24 09:56:02;;;;;;;36.67;2.70;;;;;;;;;;5012296;28;20050;-68
2022/04/24 09:58:35;;;;;;;6.28;3.15;;;;;;;;;;4996504;28;20405;-67
2022/04/24 10:01:10;;;;;;;21.38;3.15;;;;;;;;;;4995810;28;20050;-68
2022/04/24 10:03:42;;;;;;;15.82;2.70;;;;;;;;;;4992453;28;20061;-68
2022/04/24 10:06:13;;;;;;;;;;;;;;;;;;4977472;28;20054;-67
2022/04/24 10:08:43;;;;;;;18.00;3.08;;;;;;;;;;4992598;28;19925;-67
2022/04/24 10:11:14;;;;;;;16.63;3.40;;;;;;;;;;5029817;28;20567;-67
2022/04/24 10:13:47;;;;;;;11.63;3.30;;;;;;;;;;5015572;28;20060;-67
2022/04/24 10:16:29;;;;;;;10.30;2.95;;;;;;;;;;5031965;28;20061;-67
2022/04/24 10:19:36;;;;;;;27.25;3.63;;;;;;;;;;5031893;28;20037;-67
2022/04/24 10:22:28;;;;;;;22.83;4.38;;;;;;;;;;4995262;28;20441;-67
2022/04/24 10:25:01;;;;;;;19.15;4.60;;;;;;;;;;5012048;28;20046;-67
2022/04/24 10:28:10;;;;;;;26.27;4.47;;;;;;;;;;5013467;28;20471;-67
2022/04/24 10:30:41;;;;;;;31.40;4.82;;;;;;;;;;4953197;29;20523;-67
2022/04/24 10:33:22;;;;;;;43.03;4.95;;;;;;;;;;4937877;29;20051;-67
2022/04/24 10:36:01;;;;;;;18.20;5.05;;;;;;;;;;4937274;29;20535;-67
2022/04/24 10:38:33;;;;;;;20.58;4.68;;;;;;;;;;4953382;29;20567;-67
2022/04/24 10:41:15;;;;;;;25.17;4.85;;;;;;;;;;4943511;28;20419;-67
2022/04/24 10:43:51;;;;;;;17.70;4.38;;;;;;;;;;4991986;28;20513;-67
2022/04/24 10:46:34;;;;;;;22.30;5.35;;;;;;;;;;4976411;28;20077;-68
2022/04/24 10:49:09;;;;;;;29.33;4.82;;;;;;;;;;4992142;28;20062;-67
2022/04/24 10:51:42;;;;;;;30.63;5.53;;;;;;;;;;4991743;28;20053;-68
2022/04/24 10:54:17;;;;;;;23.50;6.03;;;;;;;;;;4991839;28;20081;-67
2022/04/24 10:56:49;;;;;;;18.60;6.15;;;;;;;;;;4991646;28;20050;-67
2022/04/24 10:59:22;;;;;;;20.77;6.57;;;;;;;;;;4956500;28;20061;-67
2022/04/24 11:01:58;;;;;;;20.73;6.15;;;;;;;;;;5014977;28;20095;-67
2022/04/24 11:04:41;;;;;;;21.33;5.40;;;;;;;;;;4997480;28;20057;-67
2022/04/24 11:07:21;;;;;;;20.63;8.35;;;;;;;;;;5026880;28;20052;-68
2022/04/24 11:10:02;;;;;;;20.27;5.93;;;;;;;;;;5113623;28;20051;-67
2022/04/24 11:12:34;;;;;;;22.67;4.97;;;;;;;;;;5113608;28;20070;-67
2022/04/24 11:15:11;;;;;;;28.63;6.60;;;;;;;;;;5112344;28;20040;-67
2022/04/24 11:17:42;;;;;;;22.52;8.73;;;;;;;;;;5094717;28;20051;-67
2022/04/24 11:20:14;;;;;;;79.15;23.25;;;;;;;;;;5113272;28;20039;-67
2022/04/24 11:22:50;;;;;;;90.70;33.47;;;;;;;;;;5050234;28;20052;-68
2022/04/24 11:25:24;;;;;;;33.83;9.30;;;;;;;;;;5050585;28;20100;-68
2022/04/24 11:27:57;;;;;;;21.45;6.68;;;;;;;;;;5030522;28;20050;-68
2022/04/24 11:30:33;;;;;;;32.00;6.30;;;;;;;;;;4998551;28;20069;-67
2022/04/24 11:33:06;;;;;;;34.42;6.75;;;;;;;;;;4990871;28;20046;-67
2022/04/24 11:35:39;;;;;;;34.95;6.45;;;;;;;;;;4975533;28;20069;-67
2022/04/24 11:38:13;;;;;;;19.52;6.45;;;;;;;;;;4991033;28;20058;-67
2022/04/24 11:40:49;;;;;;;22.35;6.55;;;;;;;;;;4958775;28;20058;-67
2022/04/24 11:43:21;;;;;;;16.95;5.70;;;;;;;;;;4991148;28;20540;-67
2022/04/24 11:51:32;;;;;;;21.00;7.13;;;;;;;;;;4990595;28;20061;-68
2022/04/24 11:54:11;;;;;;;17.45;5.55;;;;;;;;;;4990290;28;20068;-68
2022/04/24 11:56:43;;;;;;;25.60;7.05;;;;;;;;;;4990843;28;20054;-68
2022/04/24 11:59:19;;;;;;;30.13;7.53;;;;;;;;;;4992597;28;20055;-68
2022/04/24 12:02:00;;;;;;;20.38;7.18;;;;;;;;;;5016809;28;20173;-68
2022/04/24 12:04:33;;;;;;;21.05;6.70;;;;;;;;;;5002791;28;20052;-67
2022/04/24 12:07:09;;;;;;;22.65;8.05;;;;;;;;;;5070173;28;20056;-67
2022/04/24 12:09:39;;;;;;;24.30;7.57;;;;;;;;;;4996675;28;20049;-67
2022/04/24 12:12:14;;;;;;;20.80;7.35;;;;;;;;;;5029839;28;20052;-67
2022/04/24 12:14:54;;;;;;;25.40;7.72;;;;;;;;;;5029825;28;20520;-68
2022/04/24 12:17:25;;;;;;;21.65;7.85;;;;;;;;;;4997962;28;20049;-68
2022/04/24 12:19:58;;;;;;;23.25;8.02;;;;;;;;;;5029885;28;20058;-68
2022/04/24 12:22:37;;;;;;;20.15;7.68;;;;;;;;;;5029748;28;20058;-68
2022/04/24 12:25:11;;;;;;;20.35;7.22;;;;;;;;;;4996903;28;20050;-67
2022/04/24 12:27:56;;;;;;;18.85;7.57;;;;;;;;;;4993906;28;20049;-67
2022/04/24 12:30:33;;;;;;;;;;;;;;;;;;4990859;28;20062;-67
2022/04/24 12:33:08;;;;;;;18.08;7.20;;;;;;;;;;5029773;28;20434;-68
2022/04/24 12:35:40;;;;;;;18.65;7.10;;;;;;;;;;5029458;28;20493;-67
2022/04/24 12:38:19;;;;;;;19.45;7.28;;;;;;;;;;5029881;28;20045;-68
2022/04/24 12:40:59;;;;;;;16.10;6.05;;;;;;;;;;5029666;28;20571;-67
2022/04/24 12:43:31;;;;;;;14.68;6.28;;;;;;;;;;5009684;28;20046;-67
2022/04/24 12:46:03;;;;;;;13.98;7.07;;;;;;;;;;4961668;28;20054;-67
2022/04/24 12:48:51;;;;;;;11.73;5.80;;;;;;;;;;4990424;28;20058;-67
2022/04/24 12:51:25;;;;;;;16.48;6.47;;;;;;;;;;5009653;28;20046;-67
2022/04/24 12:53:58;;;;;;;12.00;5.53;;;;;;;;;;5010031;28;20050;-68
2022/04/24 12:56:30;;;;;;;11.13;5.45;;;;;;;;;;4977332;28;20077;-68
2022/04/24 12:59:01;;;;;;;12.95;6.25;;;;;;;;;;5009893;28;20676;-67
2022/04/24 13:01:31;;;;;;;10.23;5.57;;;;;;;;;;4989576;28;20090;-68
2022/04/24 13:04:01;;;;;;;14.32;6.15;;;;;;;;;;4971442;28;20062;-67
2022/04/24 13:06:32;;;;;;;12.75;6.07;;;;;;;;;;4993471;28;20051;-67
2022/04/24 13:09:07;;;;;;;12.70;5.45;;;;;;;;;;4993824;28;20050;-67
2022/04/24 13:11:38;;;;;;;9.55;5.13;;;;;;;;;;4993647;28;20054;-66
2022/04/24 13:14:09;;;;;;;12.00;5.28;;;;;;;;;;5010551;28;20054;-68
2022/04/24 13:19:30;;;;;;;12.43;5.22;;;;;;;;;;4993522;28;20054;-67
2022/04/24 13:22:00;;;;;;;42.42;20.63;;;;;;;;;;5010198;28;20062;-67
2022/04/24 13:24:31;;;;;;;11.68;5.85;;;;;;;;;;5013057;28;20057;-67
2022/04/24 13:27:02;;;;;;;16.92;8.38;;;;;;;;;;5012969;28;20473;-67
2022/04/24 13:29:34;;;;;;;10.98;6.35;;;;;;;;;;4993533;28;20059;-67
2022/04/24 13:32:06;;;;;;;15.73;8.02;;;;;;;;;;4993230;28;20055;-66
2022/04/24 13:34:38;;;;;;;13.57;7.47;;;;;;;;;;4973517;28;20062;-67
2022/04/24 13:39:58;;;;;;;17.90;9.43;;;;;;;;;;4973755;28;20059;-67
2022/04/24 13:42:29;;;;;;;12.63;7.10;;;;;;;;;;4973971;28;20047;-67
2022/04/24 13:44:59;;;;;;;8.75;4.45;;;;;;;;;;4989835;28;20050;-66
2022/04/24 13:47:30;;;;;;;10.73;5.65;;;;;;;;;;4992916;28;20050;-66
2022/04/24 13:50:01;;;;;;;11.75;6.65;;;;;;;;;;4993151;28;20070;-67
2022/04/24 13:52:32;;;;;;;10.88;6.40;;;;;;;;;;4992989;28;20498;-66
2022/04/24 13:55:02;;;;;;;8.88;5.25;;;;;;;;;;4993157;28;20066;-66
2022/04/24 13:57:34;;;;;;;8.45;5.30;;;;;;;;;;5019439;28;20068;-66
2022/04/24 14:00:06;;;;;;;6.07;3.20;;;;;;;;;;5032000;28;20068;-67
2022/04/24 14:02:38;;;;;;;6.22;3.42;;;;;;;;;;5016760;28;20049;-66
2022/04/24 14:05:09;;;;;;;7.22;3.40;;;;;;;;;;4999608;28;20060;-66
2022/04/24 14:07:41;;;;;;;8.23;4.07;;;;;;;;;;5030159;28;20061;-66
2022/04/24 14:10:12;;;;;;;6.80;3.83;;;;;;;;;;5035735;28;20041;-66
2022/04/24 14:12:42;;;;;;;7.03;4.07;;;;;;;;;;5039350;28;20045;-66
2022/04/24 14:15:13;;;;;;;7.38;3.95;;;;;;;;;;5031582;28;20069;-66
2022/04/24 14:17:44;;;;;;;7.60;3.80;;;;;;;;;;4998678;28;20412;-66
2022/04/24 14:20:15;;;;;;;11.32;5.55;;;;;;;;;;5031962;28;20056;-66
2022/04/24 14:23:05;;;;;;;5.00;2.40;;;;;;;;;;4992384;28;20050;-66
2022/04/24 14:25:36;;;;;;;5.13;2.72;;;;;;;;;;4967096;28;20642;-66
2022/04/24 14:28:07;;;;;;;7.15;3.92;;;;;;;;;;4972989;28;20552;-66
2022/04/24 14:30:39;;;;;;;8.45;3.38;;;;;;;;;;4972886;28;20059;-66
2022/04/24 14:33:09;;;;;;;9.32;5.05;;;;;;;;;;4956950;28;20814;-66
2022/04/24 14:35:40;;;;;;;11.15;6.13;;;;;;;;;;4972814;28;20054;-66
2022/04/24 14:38:12;;;;;;;37.90;16.08;;;;;;;;;;4972663;28;20486;-66
2022/04/24 14:40:43;;;;;;;26.85;13.48;;;;;;;;;;4924668;28;20522;-66
2022/04/24 14:43:14;;;;;;;9.80;5.20;;;;;;;;;;4972421;28;20069;-66
2022/04/24 14:57:07;;;;;;;4.85;2.42;;;;;;;;;;5011739;28;20081;-66
2022/04/24 14:59:37;;;;;;;2.40;1.27;;;;;;;;;;4966850;28;20045;-66
2022/04/24 15:02:10;;;;;;;5.22;3.20;;;;;;;;;;5033076;28;20061;-66
2022/04/24 15:04:41;;;;;;;3.60;1.52;;;;;;;;;;5074642;28;20051;-66
2022/04/24 15:07:11;;;;;;;5.55;3.38;;;;;;;;;;5070685;28;20057;-66
2022/04/24 15:09:43;;;;;;;5.97;3.90;;;;;;;;;;5030667;28;20151;-66
2022/04/24 15:12:15;;;;;;;2.78;1.70;;;;;;;;;;4991339;28;20051;-66
2022/04/24 15:14:46;;;;;;;3.50;1.25;;;;;;;;;;4991438;28;20541;-66
2022/04/24 15:17:17;;;;;;;3.33;1.25;;;;;;;;;;4991691;28;20162;-66
2022/04/24 15:19:47;;;;;;;4.43;2.00;;;;;;;;;;4991376;28;20518;-66
2022/04/24 15:22:19;;;;;;;3.88;2.25;;;;;;;;;;4991380;28;20471;-66
2022/04/24 15:24:49;;;;;;;3.25;1.63;;;;;;;;;;4991189;28;20058;-66
2022/04/24 15:27:39;;;;;;;3.10;1.80;;;;;;;;;;4990700;28;20069;-66
2022/04/24 15:30:10;;;;;;;2.80;1.52;;;;;;;;;;4991364;28;20050;-66
2022/04/24 15:32:41;;;;;;;3.35;2.13;;;;;;;;;;4975611;28;20084;-66
2022/04/24 15:35:12;;;;;;;2.47;1.55;;;;;;;;;;4952126;29;20047;-66